Ana Sayfa
METAR-TAF:

METAR-TAF

Havaalanları :

Wellington, Yeni Zelanda

Enlem: 41-20S, Boylam: 174-48E, yükseklik: 12 m

Güncel hava durumu gözlemi

Rapor saat 19:00 UTC de 19 dakika önce yapıldı.
Rüzgar kuzey/kuzeybatıdan 15 kt
Sıcaklık 21°C
Nem 83%
Basınç 1015 hPa
Görüş mesafesi 10 km veya daha fazla

METAR: NZWN 191900Z AUTO 34015KT 9999 FEW018/// 21/18 Q1015 NOSIG

Saat: 08:19 (19:19 UTC)

Tahmin

Rapor saat 17:06 UTC de 2 saat ve 13 dakika önce yapıldı.
Ayın 19'si saat 18 UTC'den ayın 20'si saat 18 UTC'ye kadar geçerli Tahmin
Rüzgar kuzey/kuzeybatıdan 15 kt ve 25 kt'a kadar ani rüzgarlar
Görüş mesafesi 10 km veya daha fazla
2000 ft yükseklikte parçalı bulutlu
Dönüşüyor
ayın 20'si saat 12 UTC'den ayın 20'si saat 14 UTC'ye kadar
Rüzgar kuzey/kuzeybatıdan 15 kt

TAF: NZWN 191706Z 1918/2018 34015G25KT 9999 SCT020 BECMG 2012/2014 34015KT

4.000'den fazla havaalanı için hava durumu gözlemleri ve tahminleri (METAR ve TAF raporları).

Kullanılabilir istasyonlar harita üzerinde sarı ve kırmızı noktalarla gösterilir.

İstasyonun adını görmek için fareyi noktanın üzerinde gezdirin.

Sonrasında hava gözlem ve tahminlerini görmek için tıklayın.

Haritayı değiştirmek için: yaklaştırmak için siyah artı işaretli yeşil düğmeye ve uzaklaştırmak için de eksi işaretli düğmeye hızla tıklayın; bitişik haritalar için yeşil okları kullanın.


METAR-TAF: